sensor_id;sensor_type;location;lat;lon;timestamp;temperature;humidity
843;DHT22;407;48.884;9.126;2022-12-07T00:01:45;5.70;1.00
843;DHT22;407;48.884;9.126;2022-12-07T00:04:13;4.90;1.00
843;DHT22;407;48.884;9.126;2022-12-07T00:06:41;5.20;1.00
843;DHT22;407;48.884;9.126;2022-12-07T00:09:10;5.10;1.00
843;DHT22;407;48.884;9.126;2022-12-07T00:11:36;5.10;1.00
843;DHT22;407;48.884;9.126;2022-12-07T00:14:05;5.30;99.90
843;DHT22;407;48.884;9.126;2022-12-07T00:16:32;6.10;99.90
843;DHT22;407;48.884;9.126;2022-12-07T00:18:58;6.20;99.90
843;DHT22;407;48.884;9.126;2022-12-07T00:21:29;5.40;99.90
843;DHT22;407;48.884;9.126;2022-12-07T00:23:55;6.30;99.90
843;DHT22;407;48.884;9.126;2022-12-07T00:26:27;5.00;99.90
843;DHT22;407;48.884;9.126;2022-12-07T00:28:55;6.60;99.90
843;DHT22;407;48.884;9.126;2022-12-07T00:31:25;5.00;99.90
843;DHT22;407;48.884;9.126;2022-12-07T00:33:51;4.90;99.90
843;DHT22;407;48.884;9.126;2022-12-07T00:36:19;5.50;99.90
843;DHT22;407;48.884;9.126;2022-12-07T00:38:45;4.90;99.90
843;DHT22;407;48.884;9.126;2022-12-07T00:41:13;4.90;99.90
843;DHT22;407;48.884;9.126;2022-12-07T00:43:40;4.90;99.90
843;DHT22;407;48.884;9.126;2022-12-07T00:46:06;4.80;99.90
843;DHT22;407;48.884;9.126;2022-12-07T00:48:32;4.80;99.90
843;DHT22;407;48.884;9.126;2022-12-07T00:50:57;6.00;99.90
843;DHT22;407;48.884;9.126;2022-12-07T00:53:24;6.40;99.90
843;DHT22;407;48.884;9.126;2022-12-07T00:55:50;4.70;99.90
843;DHT22;407;48.884;9.126;2022-12-07T00:58:15;4.70;99.90
843;DHT22;407;48.884;9.126;2022-12-07T01:00:42;4.60;99.90
843;DHT22;407;48.884;9.126;2022-12-07T01:03:11;6.60;99.90
843;DHT22;407;48.884;9.126;2022-12-07T01:05:37;4.70;99.90
843;DHT22;407;48.884;9.126;2022-12-07T01:08:03;5.70;1.00
843;DHT22;407;48.884;9.126;2022-12-07T01:10:29;4.70;99.90
843;DHT22;407;48.884;9.126;2022-12-07T01:12:56;4.70;99.90
843;DHT22;407;48.884;9.126;2022-12-07T01:15:22;4.70;74.80
843;DHT22;407;48.884;9.126;2022-12-07T01:17:47;4.60;1.00
843;DHT22;407;48.884;9.126;2022-12-07T01:20:13;5.20;12.70
843;DHT22;407;48.884;9.126;2022-12-07T01:22:41;4.50;99.90
843;DHT22;407;48.884;9.126;2022-12-07T01:25:08;6.10;99.90
843;DHT22;407;48.884;9.126;2022-12-07T01:27:35;5.70;99.90
843;DHT22;407;48.884;9.126;2022-12-07T01:30:02;4.70;99.70
843;DHT22;407;48.884;9.126;2022-12-07T01:32:29;4.70;6.60
843;DHT22;407;48.884;9.126;2022-12-07T01:34:55;5.80;1.00
843;DHT22;407;48.884;9.126;2022-12-07T01:37:20;4.70;1.00
843;DHT22;407;48.884;9.126;2022-12-07T01:39:49;4.80;1.00
843;DHT22;407;48.884;9.126;2022-12-07T01:42:15;4.70;1.00
843;DHT22;407;48.884;9.126;2022-12-07T01:47:50;4.70;1.00
843;DHT22;407;48.884;9.126;2022-12-07T01:50:19;5.00;1.00
843;DHT22;407;48.884;9.126;2022-12-07T01:52:47;5.20;26.90
843;DHT22;407;48.884;9.126;2022-12-07T01:55:15;4.80;1.00
843;DHT22;407;48.884;9.126;2022-12-07T01:57:45;4.80;1.00
843;DHT22;407;48.884;9.126;2022-12-07T02:00:12;6.50;42.60
843;DHT22;407;48.884;9.126;2022-12-07T02:05:27;4.90;1.00
843;DHT22;407;48.884;9.126;2022-12-07T02:07:55;5.00;1.00
843;DHT22;407;48.884;9.126;2022-12-07T02:10:28;5.90;1.00
843;DHT22;407;48.884;9.126;2022-12-07T02:13:08;4.80;1.00
843;DHT22;407;48.884;9.126;2022-12-07T02:15:51;4.70;99.90
843;DHT22;407;48.884;9.126;2022-12-07T02:21:16;4.60;99.90
843;DHT22;407;48.884;9.126;2022-12-07T02:29:07;4.40;1.00
843;DHT22;407;48.884;9.126;2022-12-07T02:31:37;4.40;1.00
843;DHT22;407;48.884;9.126;2022-12-07T02:35:11;4.40;1.00
843;DHT22;407;48.884;9.126;2022-12-07T02:37:36;4.40;1.00
843;DHT22;407;48.884;9.126;2022-12-07T02:40:09;4.40;1.00
843;DHT22;407;48.884;9.126;2022-12-07T02:43:24;5.30;1.00
843;DHT22;407;48.884;9.126;2022-12-07T02:45:51;4.50;1.00
843;DHT22;407;48.884;9.126;2022-12-07T02:48:18;4.50;1.00
843;DHT22;407;48.884;9.126;2022-12-07T02:50:52;4.50;1.00
843;DHT22;407;48.884;9.126;2022-12-07T02:53:38;4.50;99.90
843;DHT22;407;48.884;9.126;2022-12-07T03:07:48;4.40;1.00
843;DHT22;407;48.884;9.126;2022-12-07T03:09:56;4.30;99.90
843;DHT22;407;48.884;9.126;2022-12-07T03:12:30;4.30;1.00
843;DHT22;407;48.884;9.126;2022-12-07T03:15:01;4.20;1.00
843;DHT22;407;48.884;9.126;2022-12-07T03:17:30;5.00;1.00
843;DHT22;407;48.884;9.126;2022-12-07T03:19:59;4.20;1.00
843;DHT22;407;48.884;9.126;2022-12-07T03:22:29;4.20;1.00
843;DHT22;407;48.884;9.126;2022-12-07T03:25:03;4.10;1.00
843;DHT22;407;48.884;9.126;2022-12-07T03:27:35;4.20;1.00
843;DHT22;407;48.884;9.126;2022-12-07T03:30:20;4.20;1.00
843;DHT22;407;48.884;9.126;2022-12-07T03:35:49;4.40;1.00
843;DHT22;407;48.884;9.126;2022-12-07T03:38:32;4.30;99.90
843;DHT22;407;48.884;9.126;2022-12-07T03:41:09;4.40;1.00
843;DHT22;407;48.884;9.126;2022-12-07T03:43:37;4.40;1.00
843;DHT22;407;48.884;9.126;2022-12-07T03:46:14;6.10;99.90
843;DHT22;407;48.884;9.126;2022-12-07T03:48:59;4.40;99.90
843;DHT22;407;48.884;9.126;2022-12-07T03:51:31;4.40;99.90
843;DHT22;407;48.884;9.126;2022-12-07T03:54:14;4.30;99.90
843;DHT22;407;48.884;9.126;2022-12-07T03:56:42;4.20;99.90
843;DHT22;407;48.884;9.126;2022-12-07T03:59:10;6.00;99.90
843;DHT22;407;48.884;9.126;2022-12-07T04:01:36;4.50;99.90
843;DHT22;407;48.884;9.126;2022-12-07T04:04:02;5.90;99.90
843;DHT22;407;48.884;9.126;2022-12-07T04:06:27;4.30;1.00
843;DHT22;407;48.884;9.126;2022-12-07T04:08:53;4.00;41.30
843;DHT22;407;48.884;9.126;2022-12-07T04:11:18;3.90;99.90
843;DHT22;407;48.884;9.126;2022-12-07T04:13:44;3.90;99.90
843;DHT22;407;48.884;9.126;2022-12-07T04:16:28;3.90;99.90
843;DHT22;407;48.884;9.126;2022-12-07T04:18:54;3.90;99.90
843;DHT22;407;48.884;9.126;2022-12-07T04:21:20;5.70;99.90
843;DHT22;407;48.884;9.126;2022-12-07T04:23:45;3.90;99.90
843;DHT22;407;48.884;9.126;2022-12-07T04:26:11;3.90;99.90
843;DHT22;407;48.884;9.126;2022-12-07T04:28:36;3.90;99.90
843;DHT22;407;48.884;9.126;2022-12-07T04:31:02;4.00;99.90
843;DHT22;407;48.884;9.126;2022-12-07T04:33:27;4.00;99.90
843;DHT22;407;48.884;9.126;2022-12-07T04:35:53;4.00;99.90
843;DHT22;407;48.884;9.126;2022-12-07T04:38:19;4.10;99.90
843;DHT22;407;48.884;9.126;2022-12-07T04:40:44;4.20;1.00
843;DHT22;407;48.884;9.126;2022-12-07T04:43:10;5.20;1.00
843;DHT22;407;48.884;9.126;2022-12-07T04:45:35;5.90;1.00
843;DHT22;407;48.884;9.126;2022-12-07T04:48:01;4.10;99.90
843;DHT22;407;48.884;9.126;2022-12-07T04:50:26;4.10;99.90
843;DHT22;407;48.884;9.126;2022-12-07T04:52:52;4.10;99.90
843;DHT22;407;48.884;9.126;2022-12-07T04:55:18;4.10;99.90
843;DHT22;407;48.884;9.126;2022-12-07T04:57:43;4.10;1.00
843;DHT22;407;48.884;9.126;2022-12-07T05:00:09;4.20;99.90
843;DHT22;407;48.884;9.126;2022-12-07T05:02:35;4.20;99.90
843;DHT22;407;48.884;9.126;2022-12-07T05:05:01;4.30;99.90
843;DHT22;407;48.884;9.126;2022-12-07T05:07:26;4.30;99.90
843;DHT22;407;48.884;9.126;2022-12-07T05:09:52;4.30;99.90
843;DHT22;407;48.884;9.126;2022-12-07T05:12:17;4.30;1.00
843;DHT22;407;48.884;9.126;2022-12-07T05:14:43;4.20;1.00
843;DHT22;407;48.884;9.126;2022-12-07T05:17:09;4.20;1.00
843;DHT22;407;48.884;9.126;2022-12-07T05:19:34;4.10;1.00
843;DHT22;407;48.884;9.126;2022-12-07T05:22:00;5.30;99.90
843;DHT22;407;48.884;9.126;2022-12-07T05:24:25;4.90;1.00
843;DHT22;407;48.884;9.126;2022-12-07T05:26:51;4.00;1.00
843;DHT22;407;48.884;9.126;2022-12-07T05:29:17;4.10;99.90
843;DHT22;407;48.884;9.126;2022-12-07T05:31:43;3.90;99.90
843;DHT22;407;48.884;9.126;2022-12-07T05:34:09;3.90;1.00
843;DHT22;407;48.884;9.126;2022-12-07T05:36:35;3.90;1.00
843;DHT22;407;48.884;9.126;2022-12-07T05:39:01;3.90;1.00
843;DHT22;407;48.884;9.126;2022-12-07T05:41:27;3.90;1.00
843;DHT22;407;48.884;9.126;2022-12-07T05:44:11;3.90;1.00
843;DHT22;407;48.884;9.126;2022-12-07T05:46:37;5.00;1.00
843;DHT22;407;48.884;9.126;2022-12-07T05:49:02;3.70;1.00
843;DHT22;407;48.884;9.126;2022-12-07T05:51:28;5.40;75.30
843;DHT22;407;48.884;9.126;2022-12-07T05:53:54;3.70;99.90
843;DHT22;407;48.884;9.126;2022-12-07T05:56:19;3.80;99.90
843;DHT22;407;48.884;9.126;2022-12-07T05:58:45;3.80;99.90
843;DHT22;407;48.884;9.126;2022-12-07T06:01:29;4.20;99.90
843;DHT22;407;48.884;9.126;2022-12-07T06:03:55;3.80;99.90
843;DHT22;407;48.884;9.126;2022-12-07T06:06:20;3.90;99.90
843;DHT22;407;48.884;9.126;2022-12-07T06:08:46;4.80;1.00
843;DHT22;407;48.884;9.126;2022-12-07T06:11:11;3.80;99.90
843;DHT22;407;48.884;9.126;2022-12-07T06:13:55;4.80;99.90
843;DHT22;407;48.884;9.126;2022-12-07T06:16:21;5.00;1.00
843;DHT22;407;48.884;9.126;2022-12-07T06:18:47;3.50;99.90
843;DHT22;407;48.884;9.126;2022-12-07T06:21:12;4.90;1.00
843;DHT22;407;48.884;9.126;2022-12-07T06:23:38;3.60;99.90
843;DHT22;407;48.884;9.126;2022-12-07T06:26:04;3.50;1.00
843;DHT22;407;48.884;9.126;2022-12-07T06:28:29;3.40;1.00
843;DHT22;407;48.884;9.126;2022-12-07T06:30:59;3.40;1.00
843;DHT22;407;48.884;9.126;2022-12-07T06:33:25;3.80;1.00
843;DHT22;407;48.884;9.126;2022-12-07T06:35:50;3.30;1.00
843;DHT22;407;48.884;9.126;2022-12-07T06:38:16;3.40;1.00
843;DHT22;407;48.884;9.126;2022-12-07T06:40:42;3.40;1.00
843;DHT22;407;48.884;9.126;2022-12-07T06:43:08;3.50;99.90
843;DHT22;407;48.884;9.126;2022-12-07T06:45:33;3.50;99.90
843;DHT22;407;48.884;9.126;2022-12-07T06:47:59;4.10;52.10
843;DHT22;407;48.884;9.126;2022-12-07T06:50:24;3.50;1.00
843;DHT22;407;48.884;9.126;2022-12-07T06:52:51;3.60;1.00
843;DHT22;407;48.884;9.126;2022-12-07T06:55:17;3.70;99.90
843;DHT22;407;48.884;9.126;2022-12-07T06:57:42;3.70;99.90
843;DHT22;407;48.884;9.126;2022-12-07T07:00:09;3.70;17.40
843;DHT22;407;48.884;9.126;2022-12-07T07:02:34;3.60;1.00
843;DHT22;407;48.884;9.126;2022-12-07T07:05:00;3.70;1.00
843;DHT22;407;48.884;9.126;2022-12-07T07:07:26;5.30;1.00
843;DHT22;407;48.884;9.126;2022-12-07T07:09:51;3.60;1.00
843;DHT22;407;48.884;9.126;2022-12-07T07:12:17;3.70;1.00
843;DHT22;407;48.884;9.126;2022-12-07T07:14:42;4.30;1.00
843;DHT22;407;48.884;9.126;2022-12-07T07:17:08;3.80;1.00
843;DHT22;407;48.884;9.126;2022-12-07T07:19:34;3.80;1.00
843;DHT22;407;48.884;9.126;2022-12-07T07:21:59;3.90;99.90
843;DHT22;407;48.884;9.126;2022-12-07T07:24:25;3.90;99.90
843;DHT22;407;48.884;9.126;2022-12-07T07:26:51;3.90;99.90
843;DHT22;407;48.884;9.126;2022-12-07T07:29:17;5.60;99.90
843;DHT22;407;48.884;9.126;2022-12-07T07:31:42;4.00;99.90
843;DHT22;407;48.884;9.126;2022-12-07T07:34:08;4.10;53.30
843;DHT22;407;48.884;9.126;2022-12-07T07:36:33;4.90;1.00
843;DHT22;407;48.884;9.126;2022-12-07T07:38:59;4.10;1.00
843;DHT22;407;48.884;9.126;2022-12-07T07:41:24;4.20;1.00
843;DHT22;407;48.884;9.126;2022-12-07T07:43:50;5.90;1.00
843;DHT22;407;48.884;9.126;2022-12-07T07:46:16;4.20;1.00
843;DHT22;407;48.884;9.126;2022-12-07T07:48:41;4.30;1.00
843;DHT22;407;48.884;9.126;2022-12-07T07:51:07;4.40;99.90
843;DHT22;407;48.884;9.126;2022-12-07T07:53:33;6.00;99.90
843;DHT22;407;48.884;9.126;2022-12-07T07:55:59;5.00;99.90
843;DHT22;407;48.884;9.126;2022-12-07T07:58:25;4.60;99.90
843;DHT22;407;48.884;9.126;2022-12-07T08:00:51;4.60;99.90
843;DHT22;407;48.884;9.126;2022-12-07T08:03:16;6.10;99.80
843;DHT22;407;48.884;9.126;2022-12-07T08:05:42;4.70;79.80
843;DHT22;407;48.884;9.126;2022-12-07T08:08:08;4.60;1.00
843;DHT22;407;48.884;9.126;2022-12-07T08:10:33;4.70;1.00
843;DHT22;407;48.884;9.126;2022-12-07T08:13:01;4.90;1.00
843;DHT22;407;48.884;9.126;2022-12-07T08:15:46;6.00;1.00
843;DHT22;407;48.884;9.126;2022-12-07T08:18:14;4.90;1.00
843;DHT22;407;48.884;9.126;2022-12-07T08:20:40;5.90;99.90
843;DHT22;407;48.884;9.126;2022-12-07T08:23:07;6.20;99.90
843;DHT22;407;48.884;9.126;2022-12-07T08:25:34;5.10;99.90
843;DHT22;407;48.884;9.126;2022-12-07T08:27:59;5.10;99.90
843;DHT22;407;48.884;9.126;2022-12-07T08:30:26;5.10;99.90
843;DHT22;407;48.884;9.126;2022-12-07T08:32:51;5.20;99.90
843;DHT22;407;48.884;9.126;2022-12-07T08:35:17;6.10;99.90
843;DHT22;407;48.884;9.126;2022-12-07T08:37:43;5.20;99.90
843;DHT22;407;48.884;9.126;2022-12-07T08:40:10;5.50;99.90
843;DHT22;407;48.884;9.126;2022-12-07T08:42:36;5.30;99.90
843;DHT22;407;48.884;9.126;2022-12-07T08:45:11;5.50;96.10
843;DHT22;407;48.884;9.126;2022-12-07T08:47:40;5.40;80.80
843;DHT22;407;48.884;9.126;2022-12-07T08:50:08;5.30;28.70
843;DHT22;407;48.884;9.126;2022-12-07T08:52:36;5.30;20.40
843;DHT22;407;48.884;9.126;2022-12-07T08:55:02;6.40;22.60
843;DHT22;407;48.884;9.126;2022-12-07T08:57:29;5.40;1.00
843;DHT22;407;48.884;9.126;2022-12-07T08:59:54;5.50;1.00
843;DHT22;407;48.884;9.126;2022-12-07T09:02:20;5.60;1.00
843;DHT22;407;48.884;9.126;2022-12-07T09:04:45;6.10;1.00
843;DHT22;407;48.884;9.126;2022-12-07T09:07:11;7.10;1.00
843;DHT22;407;48.884;9.126;2022-12-07T09:09:37;6.10;1.00
843;DHT22;407;48.884;9.126;2022-12-07T09:12:03;6.10;1.00
843;DHT22;407;48.884;9.126;2022-12-07T09:14:29;6.10;1.00
843;DHT22;407;48.884;9.126;2022-12-07T09:16:54;6.10;1.00
843;DHT22;407;48.884;9.126;2022-12-07T09:19:20;7.40;1.00
843;DHT22;407;48.884;9.126;2022-12-07T09:21:45;7.30;1.00
843;DHT22;407;48.884;9.126;2022-12-07T09:24:12;6.40;1.00
843;DHT22;407;48.884;9.126;2022-12-07T09:26:38;6.40;1.00
843;DHT22;407;48.884;9.126;2022-12-07T09:29:05;6.60;1.00
843;DHT22;407;48.884;9.126;2022-12-07T09:31:31;7.30;1.00
843;DHT22;407;48.884;9.126;2022-12-07T09:33:59;5.60;1.00
843;DHT22;407;48.884;9.126;2022-12-07T09:36:26;5.60;1.00
843;DHT22;407;48.884;9.126;2022-12-07T09:38:52;5.80;1.00
843;DHT22;407;48.884;9.126;2022-12-07T09:41:18;6.80;1.00
843;DHT22;407;48.884;9.126;2022-12-07T09:43:44;5.90;1.00
843;DHT22;407;48.884;9.126;2022-12-07T09:46:15;6.60;1.00
843;DHT22;407;48.884;9.126;2022-12-07T09:48:43;6.00;1.00
843;DHT22;407;48.884;9.126;2022-12-07T09:51:21;6.20;1.00
843;DHT22;407;48.884;9.126;2022-12-07T09:53:48;6.30;1.00
843;DHT22;407;48.884;9.126;2022-12-07T09:56:15;6.10;1.00
843;DHT22;407;48.884;9.126;2022-12-07T09:58:43;6.60;1.00
843;DHT22;407;48.884;9.126;2022-12-07T10:03:39;5.90;1.00
843;DHT22;407;48.884;9.126;2022-12-07T10:06:06;5.80;1.00
843;DHT22;407;48.884;9.126;2022-12-07T10:08:33;5.80;1.00
843;DHT22;407;48.884;9.126;2022-12-07T10:11:01;5.80;1.00
843;DHT22;407;48.884;9.126;2022-12-07T10:13:40;5.80;1.00
843;DHT22;407;48.884;9.126;2022-12-07T10:16:08;5.80;1.00
843;DHT22;407;48.884;9.126;2022-12-07T10:18:50;5.70;1.00
843;DHT22;407;48.884;9.126;2022-12-07T10:21:23;6.40;1.00
843;DHT22;407;48.884;9.126;2022-12-07T10:31:55;6.00;1.00
843;DHT22;407;48.884;9.126;2022-12-07T10:34:25;6.10;1.00
843;DHT22;407;48.884;9.126;2022-12-07T10:36:52;6.10;5.40
843;DHT22;407;48.884;9.126;2022-12-07T10:39:20;5.90;1.50
843;DHT22;407;48.884;9.126;2022-12-07T10:42:00;5.80;24.70
843;DHT22;407;48.884;9.126;2022-12-07T10:44:28;5.60;99.90
843;DHT22;407;48.884;9.126;2022-12-07T10:50:06;5.60;99.90
843;DHT22;407;48.884;9.126;2022-12-07T10:52:45;5.60;99.90
843;DHT22;407;48.884;9.126;2022-12-07T11:00:58;5.80;99.90
843;DHT22;407;48.884;9.126;2022-12-07T11:06:05;5.90;99.90
843;DHT22;407;48.884;9.126;2022-12-07T11:11:36;5.70;99.90
843;DHT22;407;48.884;9.126;2022-12-07T11:14:11;5.50;1.00
843;DHT22;407;48.884;9.126;2022-12-07T11:16:59;5.40;6.70
843;DHT22;407;48.884;9.126;2022-12-07T11:22:04;5.30;1.00
843;DHT22;407;48.884;9.126;2022-12-07T11:27:24;5.50;99.90
843;DHT22;407;48.884;9.126;2022-12-07T11:30:02;5.50;38.70
843;DHT22;407;48.884;9.126;2022-12-07T11:33:04;5.50;1.00
843;DHT22;407;48.884;9.126;2022-12-07T11:38:21;5.40;15.20
843;DHT22;407;48.884;9.126;2022-12-07T11:40:50;5.40;1.00
843;DHT22;407;48.884;9.126;2022-12-07T11:43:56;5.50;1.00
843;DHT22;407;48.884;9.126;2022-12-07T11:46:27;5.50;1.00
843;DHT22;407;48.884;9.126;2022-12-07T11:52:15;5.50;1.00
843;DHT22;407;48.884;9.126;2022-12-07T11:54:43;5.50;1.00
843;DHT22;407;48.884;9.126;2022-12-07T11:57:37;5.80;1.00
843;DHT22;407;48.884;9.126;2022-12-07T12:00:13;5.80;1.00
843;DHT22;407;48.884;9.126;2022-12-07T12:02:59;5.70;1.00
843;DHT22;407;48.884;9.126;2022-12-07T12:05:27;5.70;1.00
843;DHT22;407;48.884;9.126;2022-12-07T12:08:05;5.60;1.00
843;DHT22;407;48.884;9.126;2022-12-07T12:13:39;5.60;1.00
843;DHT22;407;48.884;9.126;2022-12-07T12:18:48;6.60;1.00
843;DHT22;407;48.884;9.126;2022-12-07T12:21:22;5.70;1.00
843;DHT22;407;48.884;9.126;2022-12-07T12:24:01;5.60;1.00
843;DHT22;407;48.884;9.126;2022-12-07T12:26:31;5.60;1.00
843;DHT22;407;48.884;9.126;2022-12-07T12:29:03;5.70;1.00
843;DHT22;407;48.884;9.126;2022-12-07T12:34:00;5.60;1.00
843;DHT22;407;48.884;9.126;2022-12-07T12:36:44;5.40;1.00
843;DHT22;407;48.884;9.126;2022-12-07T12:47:04;5.30;1.00
843;DHT22;407;48.884;9.126;2022-12-07T12:49:37;5.60;1.00
843;DHT22;407;48.884;9.126;2022-12-07T12:55:10;5.70;1.00
843;DHT22;407;48.884;9.126;2022-12-07T12:57:37;5.70;1.00
843;DHT22;407;48.884;9.126;2022-12-07T13:00:15;5.70;1.00
843;DHT22;407;48.884;9.126;2022-12-07T13:02:53;5.50;1.00
843;DHT22;407;48.884;9.126;2022-12-07T13:05:29;5.60;1.00
843;DHT22;407;48.884;9.126;2022-12-07T13:08:12;7.10;1.00
843;DHT22;407;48.884;9.126;2022-12-07T13:10:43;6.30;1.00
843;DHT22;407;48.884;9.126;2022-12-07T13:15:44;5.70;1.00
843;DHT22;407;48.884;9.126;2022-12-07T13:20:52;6.60;1.00
843;DHT22;407;48.884;9.126;2022-12-07T13:23:24;5.70;1.00
843;DHT22;407;48.884;9.126;2022-12-07T13:28:45;5.60;1.00
843;DHT22;407;48.884;9.126;2022-12-07T13:31:39;5.60;1.00
843;DHT22;407;48.884;9.126;2022-12-07T13:36:51;5.70;1.00
843;DHT22;407;48.884;9.126;2022-12-07T13:39:20;7.10;1.00
843;DHT22;407;48.884;9.126;2022-12-07T13:42:11;6.70;1.00
843;DHT22;407;48.884;9.126;2022-12-07T13:44:46;6.70;1.00
843;DHT22;407;48.884;9.126;2022-12-07T13:47:13;7.00;1.00
843;DHT22;407;48.884;9.126;2022-12-07T13:49:53;6.40;1.00
843;DHT22;407;48.884;9.126;2022-12-07T13:52:20;6.00;1.00
843;DHT22;407;48.884;9.126;2022-12-07T13:57:25;5.60;1.00
843;DHT22;407;48.884;9.126;2022-12-07T13:59:51;6.40;1.00
843;DHT22;407;48.884;9.126;2022-12-07T14:02:26;5.70;1.00
843;DHT22;407;48.884;9.126;2022-12-07T14:05:05;6.90;1.00
843;DHT22;407;48.884;9.126;2022-12-07T14:07:33;6.90;1.00
843;DHT22;407;48.884;9.126;2022-12-07T14:10:02;6.00;1.00
843;DHT22;407;48.884;9.126;2022-12-07T14:12:30;6.00;1.00
843;DHT22;407;48.884;9.126;2022-12-07T14:14:57;7.00;1.00
843;DHT22;407;48.884;9.126;2022-12-07T14:17:26;5.70;1.00
843;DHT22;407;48.884;9.126;2022-12-07T14:19:58;5.60;1.00
843;DHT22;407;48.884;9.126;2022-12-07T14:22:53;5.40;1.00
843;DHT22;407;48.884;9.126;2022-12-07T14:25:25;5.40;35.60
843;DHT22;407;48.884;9.126;2022-12-07T14:27:57;5.50;50.60
843;DHT22;407;48.884;9.126;2022-12-07T14:30:26;5.60;1.00
843;DHT22;407;48.884;9.126;2022-12-07T14:32:59;6.80;1.00
843;DHT22;407;48.884;9.126;2022-12-07T14:35:25;5.70;1.00
843;DHT22;407;48.884;9.126;2022-12-07T14:37:51;5.60;1.00
843;DHT22;407;48.884;9.126;2022-12-07T14:40:28;6.40;1.00
843;DHT22;407;48.884;9.126;2022-12-07T14:42:57;5.70;1.00
843;DHT22;407;48.884;9.126;2022-12-07T14:45:23;5.50;1.00
843;DHT22;407;48.884;9.126;2022-12-07T14:47:49;6.10;1.00
843;DHT22;407;48.884;9.126;2022-12-07T14:50:17;5.60;1.00
843;DHT22;407;48.884;9.126;2022-12-07T14:52:49;5.30;1.00
843;DHT22;407;48.884;9.126;2022-12-07T14:55:24;5.20;99.90
843;DHT22;407;48.884;9.126;2022-12-07T14:57:50;5.20;99.90
843;DHT22;407;48.884;9.126;2022-12-07T15:00:17;5.10;99.90
843;DHT22;407;48.884;9.126;2022-12-07T15:02:44;5.10;99.90
843;DHT22;407;48.884;9.126;2022-12-07T15:05:10;5.50;1.00
843;DHT22;407;48.884;9.126;2022-12-07T15:07:36;5.80;99.90
843;DHT22;407;48.884;9.126;2022-12-07T15:10:03;5.00;1.00
843;DHT22;407;48.884;9.126;2022-12-07T15:12:28;4.90;99.90
843;DHT22;407;48.884;9.126;2022-12-07T15:14:54;5.00;1.00
843;DHT22;407;48.884;9.126;2022-12-07T15:17:19;4.90;1.00
843;DHT22;407;48.884;9.126;2022-12-07T15:19:45;4.80;1.00
843;DHT22;407;48.884;9.126;2022-12-07T15:22:11;4.60;86.10
843;DHT22;407;48.884;9.126;2022-12-07T15:24:37;4.60;99.90
843;DHT22;407;48.884;9.126;2022-12-07T15:27:03;5.20;99.90
843;DHT22;407;48.884;9.126;2022-12-07T15:29:29;4.50;99.90
843;DHT22;407;48.884;9.126;2022-12-07T15:31:54;6.00;99.90
843;DHT22;407;48.884;9.126;2022-12-07T15:34:20;4.20;1.00
843;DHT22;407;48.884;9.126;2022-12-07T15:36:46;4.30;99.90
843;DHT22;407;48.884;9.126;2022-12-07T15:39:12;6.10;99.90
843;DHT22;407;48.884;9.126;2022-12-07T15:41:38;5.50;99.90
843;DHT22;407;48.884;9.126;2022-12-07T15:44:03;4.40;99.90
843;DHT22;407;48.884;9.126;2022-12-07T15:46:48;4.40;99.90
843;DHT22;407;48.884;9.126;2022-12-07T15:49:17;4.40;99.90
843;DHT22;407;48.884;9.126;2022-12-07T15:51:44;5.60;99.90
843;DHT22;407;48.884;9.126;2022-12-07T15:54:13;4.40;1.00
843;DHT22;407;48.884;9.126;2022-12-07T15:56:41;4.50;12.00
843;DHT22;407;48.884;9.126;2022-12-07T15:59:06;4.60;1.00
843;DHT22;407;48.884;9.126;2022-12-07T16:01:32;4.70;99.90
843;DHT22;407;48.884;9.126;2022-12-07T16:03:57;4.70;99.90
843;DHT22;407;48.884;9.126;2022-12-07T16:06:24;4.70;1.00
843;DHT22;407;48.884;9.126;2022-12-07T16:08:50;5.90;1.00
843;DHT22;407;48.884;9.126;2022-12-07T16:11:16;5.20;99.90
843;DHT22;407;48.884;9.126;2022-12-07T16:13:41;4.50;99.90
843;DHT22;407;48.884;9.126;2022-12-07T16:16:13;6.20;1.00
843;DHT22;407;48.884;9.126;2022-12-07T16:18:39;4.50;99.90
843;DHT22;407;48.884;9.126;2022-12-07T16:21:05;5.50;1.00
843;DHT22;407;48.884;9.126;2022-12-07T16:23:31;4.10;45.10
843;DHT22;407;48.884;9.126;2022-12-07T16:26:07;5.90;99.90
843;DHT22;407;48.884;9.126;2022-12-07T16:28:33;4.20;99.90
843;DHT22;407;48.884;9.126;2022-12-07T16:31:11;4.10;99.90
843;DHT22;407;48.884;9.126;2022-12-07T16:33:39;4.00;93.00
843;DHT22;407;48.884;9.126;2022-12-07T16:36:06;3.90;1.00
843;DHT22;407;48.884;9.126;2022-12-07T16:38:32;3.80;1.00
843;DHT22;407;48.884;9.126;2022-12-07T16:40:58;3.80;99.90
843;DHT22;407;48.884;9.126;2022-12-07T16:43:24;3.70;81.00
843;DHT22;407;48.884;9.126;2022-12-07T16:45:50;3.60;1.00
843;DHT22;407;48.884;9.126;2022-12-07T16:48:16;3.60;1.00
843;DHT22;407;48.884;9.126;2022-12-07T16:50:42;3.50;1.00
843;DHT22;407;48.884;9.126;2022-12-07T16:53:09;5.10;1.00
843;DHT22;407;48.884;9.126;2022-12-07T16:55:36;3.30;86.80
843;DHT22;407;48.884;9.126;2022-12-07T16:58:02;3.30;99.90
843;DHT22;407;48.884;9.126;2022-12-07T17:00:27;3.40;99.90
843;DHT22;407;48.884;9.126;2022-12-07T17:02:53;4.10;25.30
843;DHT22;407;48.884;9.126;2022-12-07T17:05:20;3.50;99.90
843;DHT22;407;48.884;9.126;2022-12-07T17:07:46;3.50;99.90
843;DHT22;407;48.884;9.126;2022-12-07T17:10:11;3.50;99.90
843;DHT22;407;48.884;9.126;2022-12-07T17:12:37;3.50;99.90
843;DHT22;407;48.884;9.126;2022-12-07T17:15:03;3.60;99.90
843;DHT22;407;48.884;9.126;2022-12-07T17:17:56;3.60;99.70
843;DHT22;407;48.884;9.126;2022-12-07T17:20:24;3.60;99.90
843;DHT22;407;48.884;9.126;2022-12-07T17:22:50;3.60;99.90
843;DHT22;407;48.884;9.126;2022-12-07T17:25:16;5.50;1.00
843;DHT22;407;48.884;9.126;2022-12-07T17:27:43;3.70;1.00
843;DHT22;407;48.884;9.126;2022-12-07T17:30:10;4.80;1.00
843;DHT22;407;48.884;9.126;2022-12-07T17:32:35;3.70;1.00
843;DHT22;407;48.884;9.126;2022-12-07T17:35:02;3.90;99.90
843;DHT22;407;48.884;9.126;2022-12-07T17:37:27;5.20;99.90
843;DHT22;407;48.884;9.126;2022-12-07T17:39:53;3.90;1.00
843;DHT22;407;48.884;9.126;2022-12-07T17:42:25;3.80;99.90
843;DHT22;407;48.884;9.126;2022-12-07T17:45:06;3.90;1.00
843;DHT22;407;48.884;9.126;2022-12-07T17:47:33;3.90;1.00
843;DHT22;407;48.884;9.126;2022-12-07T17:49:58;3.90;1.00
843;DHT22;407;48.884;9.126;2022-12-07T17:52:24;3.90;1.00
843;DHT22;407;48.884;9.126;2022-12-07T17:55:08;4.00;1.00
843;DHT22;407;48.884;9.126;2022-12-07T17:57:34;5.00;1.00
843;DHT22;407;48.884;9.126;2022-12-07T17:59:59;3.90;99.90
843;DHT22;407;48.884;9.126;2022-12-07T18:02:25;5.10;99.90
843;DHT22;407;48.884;9.126;2022-12-07T18:04:51;4.00;99.90
843;DHT22;407;48.884;9.126;2022-12-07T18:07:17;4.00;99.90
843;DHT22;407;48.884;9.126;2022-12-07T18:09:43;4.00;1.00
843;DHT22;407;48.884;9.126;2022-12-07T18:12:09;3.90;1.00
843;DHT22;407;48.884;9.126;2022-12-07T18:14:35;4.90;1.00
843;DHT22;407;48.884;9.126;2022-12-07T18:17:00;3.90;67.40
843;DHT22;407;48.884;9.126;2022-12-07T18:19:26;3.90;1.00
843;DHT22;407;48.884;9.126;2022-12-07T18:21:52;3.90;99.90
843;DHT22;407;48.884;9.126;2022-12-07T18:24:17;4.80;99.90
843;DHT22;407;48.884;9.126;2022-12-07T18:26:45;4.10;1.00
843;DHT22;407;48.884;9.126;2022-12-07T18:29:16;4.20;1.00
843;DHT22;407;48.884;9.126;2022-12-07T18:31:43;4.30;99.90
843;DHT22;407;48.884;9.126;2022-12-07T18:34:11;4.20;99.90
843;DHT22;407;48.884;9.126;2022-12-07T18:36:42;6.00;99.90
843;DHT22;407;48.884;9.126;2022-12-07T18:39:10;4.20;99.90
843;DHT22;407;48.884;9.126;2022-12-07T18:41:37;5.60;99.90
843;DHT22;407;48.884;9.126;2022-12-07T18:44:03;4.30;99.90
843;DHT22;407;48.884;9.126;2022-12-07T18:46:29;4.30;99.90
843;DHT22;407;48.884;9.126;2022-12-07T18:48:55;3.10;51.80
843;DHT22;407;48.884;9.126;2022-12-07T18:51:25;4.20;99.90